Time;durP1;ratioP1;P1;durP2;ratioP2;P2;SDS_P1;SDS_P2;PMS_P1;PMS_P2;Temp;Humidity;BMP_temperature;BMP_pressure;BME280_temperature;BME280_humidity;BME280_pressure;Samples;Min_cycle;Max_cycle;Signal;HPM_P1;HPM_P2
2023/04/28 00:02:19;;;;;;;3.90;3.33;;;15.10;59.10;;;;;;6156870;23;20511;-81
2023/04/28 00:05:04;;;;;;;2.40;2.10;;;15.30;59.60;;;;;;6132386;23;20419;-80
2023/04/28 00:07:50;;;;;;;5.80;2.60;;;15.30;59.90;;;;;;6133226;23;20430;-84
2023/04/28 00:10:33;;;;;;;2.63;2.43;;;15.20;61.00;;;;;;6132966;23;20422;-82
2023/04/28 00:13:40;;;;;;;2.70;2.50;;;15.30;61.50;;;;;;6134547;23;20399;-82
2023/04/28 00:16:27;;;;;;;4.00;2.40;;;15.40;60.30;;;;;;6134314;23;20418;-82
2023/04/28 00:19:31;;;;;;;3.73;3.00;;;15.30;60.60;;;;;;6118158;23;20423;-81
2023/04/28 00:22:30;;;;;;;2.23;2.03;;;15.20;61.00;;;;;;6121566;23;20413;-81
2023/04/28 00:25:14;;;;;;;2.67;2.47;;;15.00;61.80;;;;;;6131027;23;20434;-80
2023/04/28 00:28:08;;;;;;;2.83;2.63;;;15.10;62.20;;;;;;6154457;23;20498;-81
2023/04/28 00:31:00;;;;;;;6.27;2.87;;;15.10;61.20;;;;;;6149226;23;20418;-80
2023/04/28 00:33:35;;;;;;;2.70;2.50;;;15.10;61.30;;;;;;6137569;23;20436;-81
2023/04/28 00:36:30;;;;;;;2.73;2.40;;;15.10;61.60;;;;;;6184241;23;21061;-81
2023/04/28 00:39:32;;;;;;;2.83;2.63;;;15.10;62.50;;;;;;6153616;23;20439;-80
2023/04/28 00:42:16;;;;;;;3.30;2.40;;;15.10;62.40;;;;;;6162181;23;20421;-82
2023/04/28 00:44:54;;;;;;;2.03;1.90;;;14.90;62.60;;;;;;6162330;23;20416;-84
2023/04/28 00:47:43;;;;;;;5.60;2.67;;;14.80;63.60;;;;;;6151110;23;20409;-80
2023/04/28 00:50:51;;;;;;;3.97;2.67;;;14.90;63.80;;;;;;6083649;23;20397;-82
2023/04/28 00:53:49;;;;;;;2.27;2.10;;;15.00;62.90;;;;;;6097270;23;20685;-81
2023/04/28 00:56:26;;;;;;;2.50;2.03;;;15.20;62.80;;;;;;6100188;23;20412;-82
2023/04/28 00:59:23;;;;;;;2.23;2.00;;;14.90;62.70;;;;;;6074011;23;20472;-83
2023/04/28 01:05:46;;;;;;;2.57;2.33;;;15.10;62.60;;;;;;6098198;23;21019;-82
2023/04/28 01:08:52;;;;;;;3.07;2.37;;;15.00;62.50;;;;;;6088482;23;20424;-81
2023/04/28 01:11:37;;;;;;;3.13;2.50;;;15.00;63.20;;;;;;6099684;23;20468;-82
2023/04/28 01:14:26;;;;;;;3.23;2.27;;;14.80;64.40;;;;;;6098135;23;21198;-81
2023/04/28 01:17:08;;;;;;;2.30;2.10;;;15.00;65.20;;;;;;6098024;23;20409;-82
2023/04/28 01:20:21;;;;;;;2.23;2.00;;;14.90;67.00;;;;;;6098042;23;20535;-82
2023/04/28 01:22:53;;;;;;;4.60;2.60;;;15.10;66.70;;;;;;6072415;23;20441;-81
2023/04/28 01:25:48;;;;;;;2.87;2.57;;;15.00;67.70;;;;;;6153372;23;20406;-82
2023/04/28 01:28:34;;;;;;;3.17;2.43;;;14.80;69.60;;;;;;6165244;23;20473;-81
2023/04/28 01:31:25;;;;;;;2.60;2.40;;;14.90;71.70;;;;;;6162887;23;20421;-81
2023/04/28 01:34:19;;;;;;;2.77;2.57;;;15.00;71.50;;;;;;6190696;23;20393;-82
2023/04/28 01:37:02;;;;;;;3.20;2.87;;;14.90;72.80;;;;;;6188788;23;20497;-81
2023/04/28 01:40:01;;;;;;;2.30;2.10;;;14.80;73.10;;;;;;6198626;23;20425;-80
2023/04/28 01:42:47;;;;;;;;;;;;;;;;;;;;;
2023/04/28 01:45:53;;;;;;;2.70;2.37;;;14.70;75.30;;;;;;6177740;23;20465;-82
2023/04/28 01:48:38;;;;;;;3.13;2.53;;;14.80;76.90;;;;;;6184457;23;20452;-82
2023/04/28 01:51:45;;;;;;;3.40;2.90;;;14.70;76.40;;;;;;6185335;23;20402;-82
2023/04/28 01:54:32;;;;;;;2.93;2.63;;;14.60;78.40;;;;;;6168934;23;20420;-83
2023/04/28 01:57:21;;;;;;;2.90;2.70;;;14.60;79.90;;;;;;6161728;23;20452;-83
2023/04/28 02:00:09;;;;;;;2.40;2.20;;;14.40;80.50;;;;;;6160105;23;20441;-82
2023/04/28 02:02:49;;;;;;;2.47;2.30;;;14.20;82.30;;;;;;6163924;23;20413;-83
2023/04/28 02:05:55;;;;;;;2.30;2.10;;;14.40;84.40;;;;;;6165541;23;20414;-80
2023/04/28 02:08:35;;;;;;;2.73;2.53;;;14.30;82.50;;;;;;6156115;23;20430;-81
2023/04/28 02:11:22;;;;;;;3.60;3.10;;;14.40;85.40;;;;;;6161787;23;20461;-81
2023/04/28 02:14:15;;;;;;;3.57;2.80;;;14.50;87.10;;;;;;6162628;23;20471;-81
2023/04/28 02:17:10;;;;;;;3.07;2.77;;;14.30;87.70;;;;;;6158252;23;20394;-82
2023/04/28 02:19:58;;;;;;;3.27;3.00;;;14.50;89.10;;;;;;6161601;23;20441;-82
2023/04/28 02:22:52;;;;;;;3.17;2.97;;;14.60;90.00;;;;;;6161392;23;20405;-82
2023/04/28 02:26:16;;;;;;;3.20;2.83;;;14.70;89.40;;;;;;6163238;23;20420;-82
2023/04/28 02:29:07;;;;;;;3.30;2.47;;;14.70;89.20;;;;;;6124289;23;20455;-81
2023/04/28 02:31:44;;;;;;;;;;;;;;;;;;;;;
2023/04/28 02:34:31;;;;;;;3.07;2.70;;;14.70;89.20;;;;;;6156804;23;20454;-81
2023/04/28 02:37:28;;;;;;;3.60;3.00;;;14.50;89.10;;;;;;6133915;23;20415;-83
2023/04/28 02:40:19;;;;;;;2.77;2.57;;;14.20;90.10;;;;;;6132442;23;20493;-81
2023/04/28 02:43:05;;;;;;;3.47;3.23;;;14.10;90.60;;;;;;6129146;23;20461;-81
2023/04/28 02:45:40;;;;;;;4.03;3.47;;;14.20;90.50;;;;;;6157751;23;20510;-81
2023/04/28 02:48:35;;;;;;;3.60;2.90;;;14.00;90.60;;;;;;6156133;23;20454;-83
2023/04/28 02:51:40;;;;;;;2.50;2.33;;;13.80;91.00;;;;;;6130396;23;20904;-83
2023/04/28 02:54:32;;;;;;;2.80;2.60;;;13.70;91.50;;;;;;6157946;23;20415;-83
2023/04/28 02:57:29;;;;;;;4.10;3.00;;;13.60;92.20;;;;;;6130720;23;20433;-83
2023/04/28 03:03:31;;;;;;;3.23;3.00;;;13.60;93.00;;;;;;6156729;23;20427;-82
2023/04/28 03:09:24;;;;;;;5.07;3.27;;;13.70;93.50;;;;;;6160417;23;20952;-81
2023/04/28 03:12:17;;;;;;;2.63;2.43;;;13.70;93.70;;;;;;6143965;23;20426;-81
2023/04/28 03:14:55;;;;;;;3.30;3.00;;;13.70;93.60;;;;;;6135923;23;20407;-83
2023/04/28 03:17:40;;;;;;;3.27;2.97;;;13.60;93.60;;;;;;6137782;23;20418;-80
2023/04/28 03:20:37;;;;;;;;;;;;;;;;;;;;;
2023/04/28 03:23:14;;;;;;;3.40;3.10;;;13.50;94.30;;;;;;6165214;23;20478;-82
2023/04/28 03:26:27;;;;;;;4.17;3.80;;;13.50;94.60;;;;;;6132554;23;20395;-81
2023/04/28 03:29:23;;;;;;;3.60;2.90;;;13.40;94.90;;;;;;6129255;23;20443;-82
2023/04/28 03:32:09;;;;;;;5.30;2.47;;;13.40;94.80;;;;;;6158397;23;20428;-82
2023/04/28 03:34:55;;;;;;;2.60;2.40;;;13.40;94.80;;;;;;6158041;23;20420;-82
2023/04/28 03:37:51;;;;;;;2.90;2.70;;;13.40;95.10;;;;;;6165501;23;20504;-82
2023/04/28 03:40:42;;;;;;;4.60;2.87;;;13.50;94.90;;;;;;6162786;23;20659;-81
2023/04/28 03:43:39;;;;;;;2.90;2.67;;;13.70;94.80;;;;;;6162643;23;20423;-82
2023/04/28 03:46:30;;;;;;;3.23;2.90;;;13.70;94.90;;;;;;6189461;23;20426;-83
2023/04/28 03:49:07;;;;;;;5.53;3.57;;;13.90;95.80;;;;;;6164021;23;20434;-83
2023/04/28 03:51:46;;;;;;;3.60;3.30;;;13.90;95.60;;;;;;6162104;23;20428;-83
2023/04/28 03:57:40;;;;;;;2.83;2.63;;;13.70;95.40;;;;;;6185469;23;20438;-81
2023/04/28 04:00:20;;;;;;;3.63;3.30;;;13.50;96.00;;;;;;6187984;23;20476;-82
2023/04/28 04:03:02;;;;;;;3.20;2.70;;;13.40;96.60;;;;;;6163669;23;20402;-83
2023/04/28 04:05:48;;;;;;;5.00;3.30;;;13.30;97.20;;;;;;6163718;23;20412;-81
2023/04/28 04:08:27;;;;;;;4.20;3.37;;;13.30;97.60;;;;;;6165450;23;20448;-83
2023/04/28 04:11:11;;;;;;;4.90;3.43;;;13.20;97.40;;;;;;6158339;23;20761;-83
2023/04/28 04:13:55;;;;;;;3.50;3.20;;;13.20;97.50;;;;;;6182174;23;20429;-82
2023/04/28 04:24:25;;;;;;;3.40;3.20;;;13.10;98.60;;;;;;6189261;23;20454;-82
2023/04/28 04:27:18;;;;;;;3.00;2.70;;;13.10;98.80;;;;;;6149540;23;20402;-82
2023/04/28 04:29:54;;;;;;;3.43;3.13;;;13.10;98.60;;;;;;6165241;23;20434;-83
2023/04/28 04:32:42;;;;;;;3.10;2.80;;;13.10;98.20;;;;;;6169523;23;20418;-83
2023/04/28 04:35:25;;;;;;;3.40;3.10;;;13.10;98.50;;;;;;6165609;23;20416;-83
2023/04/28 04:38:24;;;;;;;4.13;3.17;;;13.10;98.50;;;;;;6167370;23;20811;-83
2023/04/28 04:41:33;;;;;;;6.40;3.20;;;13.10;98.10;;;;;;6168402;23;20441;-82
2023/04/28 04:44:25;;;;;;;3.20;2.97;;;13.20;98.20;;;;;;6166045;22;20482;-82
2023/04/28 04:47:35;;;;;;;3.67;3.37;;;13.10;98.20;;;;;;6170913;23;20513;-83
2023/04/28 04:50:47;;;;;;;3.20;2.93;;;13.20;98.30;;;;;;6161124;23;20466;-84
2023/04/28 04:54:27;;;;;;;3.67;3.27;;;13.10;98.00;;;;;;6109421;23;20422;-83
2023/04/28 05:03:10;;;;;;;;;;;;;;;;;;;;;
2023/04/28 05:09:17;;;;;;;3.50;2.80;;;12.80;98.40;;;;;;6166969;22;20449;-81
2023/04/28 05:12:07;;;;;;;5.53;3.90;;;13.00;98.70;;;;;;6185850;23;20409;-80
2023/04/28 05:15:06;;;;;;;3.77;3.37;;;13.10;98.60;;;;;;6181690;23;20404;-82
2023/04/28 05:17:36;;;;;;;3.67;3.20;;;13.30;98.40;;;;;;6176150;23;20410;-81
2023/04/28 05:20:23;;;;;;;3.33;3.03;;;13.30;98.10;;;;;;6147882;23;20460;-80
2023/04/28 05:25:39;;;;;;;3.57;3.00;;;13.30;97.70;;;;;;6185799;23;20486;-80
2023/04/28 05:30:46;;;;;;;3.33;3.03;;;13.30;97.90;;;;;;6121560;23;20443;-82
2023/04/28 05:33:16;;;;;;;4.77;4.27;;;13.10;98.50;;;;;;6107373;23;20419;-82
2023/04/28 05:42:08;;;;;;;3.40;3.10;;;13.20;98.70;;;;;;6157151;23;20804;-81
2023/04/28 05:45:01;;;;;;;;;;;;;;;;;;;;;
2023/04/28 05:47:42;;;;;;;4.40;3.00;;;13.00;99.00;;;;;;6160029;23;20794;-83
2023/04/28 05:50:26;;;;;;;3.13;2.83;;;13.00;99.90;;;;;;6163065;23;20830;-82
2023/04/28 05:53:07;;;;;;;3.93;3.23;;;13.10;99.90;;;;;;6159721;23;20407;-82
2023/04/28 05:55:44;;;;;;;4.63;3.20;;;13.00;99.90;;;;;;6156611;23;20406;-81
2023/04/28 05:58:38;;;;;;;3.63;3.30;;;13.10;99.90;;;;;;6123926;23;20874;-83
2023/04/28 06:04:02;;;;;;;3.33;2.83;;;13.10;99.90;;;;;;6192561;23;20439;-83
2023/04/28 06:06:38;;;;;;;3.93;3.63;;;13.10;99.90;;;;;;6158376;23;20426;-82
2023/04/28 06:09:20;;;;;;;3.67;2.93;;;13.00;99.90;;;;;;6186623;23;20441;-80
2023/04/28 06:12:03;;;;;;;3.37;3.07;;;12.90;99.90;;;;;;6164359;23;20555;-80
2023/04/28 06:14:39;;;;;;;4.50;3.70;;;13.20;99.90;;;;;;6160690;23;20444;-80
2023/04/28 06:17:32;;;;;;;3.97;3.57;;;13.10;99.90;;;;;;6162543;23;20907;-81
2023/04/28 06:20:41;;;;;;;3.93;3.30;;;13.20;99.90;;;;;;6160117;23;20394;-81
2023/04/28 06:23:47;;;;;;;4.13;3.50;;;13.10;99.90;;;;;;6165312;23;20435;-83
2023/04/28 06:26:21;;;;;;;3.93;3.63;;;13.20;99.90;;;;;;6148378;23;20406;-82
2023/04/28 06:32:01;;;;;;;4.47;3.50;;;13.20;99.90;;;;;;6184239;23;20516;-82
2023/04/28 06:37:40;;;;;;;4.70;3.60;;;12.80;99.90;;;;;;6156003;23;20461;-83
2023/04/28 06:40:34;;;;;;;4.27;3.87;;;12.90;99.90;;;;;;6129283;23;20456;-83
2023/04/28 06:43:15;;;;;;;3.47;3.17;;;13.00;99.90;;;;;;6127055;23;20412;-83
2023/04/28 06:46:05;;;;;;;3.80;3.47;;;13.10;99.90;;;;;;6112875;23;20397;-82
2023/04/28 06:48:56;;;;;;;3.80;3.30;;;13.10;99.90;;;;;;6103859;23;20446;-84
2023/04/28 06:51:38;;;;;;;4.30;3.43;;;12.90;99.90;;;;;;6105345;23;20443;-83
2023/04/28 06:54:06;;;;;;;3.63;2.70;;;13.10;99.90;;;;;;6108922;23;20407;-83
2023/04/28 06:59:23;;;;;;;3.80;3.30;;;13.30;99.90;;;;;;6138801;23;20428;-82
2023/04/28 07:02:08;;;;;;;3.63;3.33;;;13.30;99.90;;;;;;6173934;23;20502;-79
2023/04/28 07:04:54;;;;;;;3.40;3.10;;;13.20;99.90;;;;;;6145347;23;20442;-80
2023/04/28 07:10:05;;;;;;;4.03;3.10;;;13.30;99.90;;;;;;6155536;23;20454;-81
2023/04/28 07:12:57;;;;;;;3.83;3.53;;;13.30;99.90;;;;;;6133981;23;20402;-81
2023/04/28 07:19:24;;;;;;;3.67;3.33;;;13.50;99.90;;;;;;6159494;23;20465;-82
2023/04/28 07:21:58;;;;;;;3.60;3.30;;;13.40;99.90;;;;;;6158738;23;20447;-82
2023/04/28 07:24:39;;;;;;;3.27;2.80;;;13.40;99.90;;;;;;6131600;23;20418;-82
2023/04/28 07:27:36;;;;;;;3.73;3.40;;;13.60;99.90;;;;;;6166341;23;20415;-83
2023/04/28 07:30:10;;;;;;;4.73;3.97;;;13.60;99.90;;;;;;6128552;23;20462;-83
2023/04/28 07:32:58;;;;;;;3.20;2.90;;;13.40;99.90;;;;;;6158913;23;20881;-82
2023/04/28 07:35:40;;;;;;;4.50;4.10;;;13.50;99.90;;;;;;6134686;23;20399;-82
2023/04/28 07:38:47;;;;;;;4.67;4.10;;;13.50;99.90;;;;;;6134815;23;20470;-83
2023/04/28 07:41:20;;;;;;;3.50;3.20;;;13.40;99.90;;;;;;6132507;23;20820;-84
2023/04/28 07:44:22;;;;;;;3.50;3.20;;;13.60;99.90;;;;;;6135307;23;20397;-83
2023/04/28 07:47:09;;;;;;;4.20;3.80;;;13.80;99.90;;;;;;6144060;23;20402;-83
2023/04/28 07:49:51;;;;;;;3.57;3.27;;;14.00;99.90;;;;;;6132603;23;20430;-83
2023/04/28 07:52:30;;;;;;;4.17;3.13;;;14.20;99.90;;;;;;6132154;23;20518;-84
2023/04/28 07:55:16;;;;;;;4.70;3.40;;;14.20;99.90;;;;;;6133646;23;20513;-82
2023/04/28 07:58:04;;;;;;;4.47;3.83;;;14.10;99.90;;;;;;6137421;23;20801;-83
2023/04/28 08:00:38;;;;;;;3.97;3.57;;;14.10;99.90;;;;;;6138856;23;20414;-82
2023/04/28 08:03:11;;;;;;;5.20;4.70;;;14.40;99.90;;;;;;6134066;23;20473;-81
2023/04/28 08:05:48;;;;;;;3.80;3.50;;;14.40;99.90;;;;;;6167252;23;20433;-83
2023/04/28 08:08:35;;;;;;;4.30;3.90;;;14.70;99.60;;;;;;6165408;23;20454;-83
2023/04/28 08:11:12;;;;;;;4.23;3.63;;;14.90;99.20;;;;;;6135795;23;20418;-81
2023/04/28 08:13:48;;;;;;;4.10;3.70;;;15.10;99.20;;;;;;6165260;23;20438;-82
2023/04/28 08:16:29;;;;;;;4.20;3.90;;;15.80;98.80;;;;;;6139837;23;20410;-81
2023/04/28 08:19:07;;;;;;;3.43;3.17;;;16.80;96.60;;;;;;6140647;23;20485;-83
2023/04/28 08:21:39;;;;;;;4.33;3.93;;;18.00;93.90;;;;;;6137945;23;20448;-83
2023/04/28 08:24:10;;;;;;;4.40;4.00;;;17.80;93.00;;;;;;6163890;23;20418;-83
2023/04/28 08:26:43;;;;;;;4.03;3.63;;;17.50;93.20;;;;;;6166955;23;20434;-81
2023/04/28 08:29:27;;;;;;;3.90;3.50;;;17.10;93.90;;;;;;6143430;23;20430;-81
2023/04/28 08:32:00;;;;;;;4.67;4.00;;;16.60;94.70;;;;;;6138667;23;20909;-82
2023/04/28 08:34:39;;;;;;;4.33;3.93;;;16.10;95.50;;;;;;6174430;23;20438;-79
2023/04/28 08:37:25;;;;;;;5.30;4.27;;;15.90;96.90;;;;;;6154692;23;20438;-80
2023/04/28 08:40:14;;;;;;;5.20;4.70;;;16.00;97.00;;;;;;6154841;23;20426;-80
2023/04/28 08:42:49;;;;;;;4.93;3.90;;;15.90;97.20;;;;;;6152405;23;20506;-79
2023/04/28 08:45:36;;;;;;;4.67;4.20;;;15.90;97.40;;;;;;6154438;23;20399;-80
2023/04/28 08:48:34;;;;;;;4.20;3.80;;;15.70;97.80;;;;;;6156581;23;20458;-82
2023/04/28 08:51:27;;;;;;;5.90;4.27;;;15.70;98.10;;;;;;6154504;23;20485;-81
2023/04/28 08:54:45;;;;;;;5.03;4.53;;;15.50;98.40;;;;;;6156278;23;20484;-81
2023/04/28 08:57:38;;;;;;;4.93;4.43;;;15.70;98.90;;;;;;6177307;23;20589;-83
2023/04/28 09:00:42;;;;;;;4.90;4.50;;;15.70;98.90;;;;;;6154710;23;20411;-81
2023/04/28 09:03:21;;;;;;;6.27;4.90;;;15.90;99.00;;;;;;6165219;23;20593;-82
2023/04/28 09:05:55;;;;;;;5.17;4.33;;;15.90;99.30;;;;;;6144907;23;20477;-83
2023/04/28 09:08:37;;;;;;;5.53;4.20;;;15.60;99.60;;;;;;6134759;23;20438;-82
2023/04/28 09:11:12;;;;;;;4.33;3.93;;;15.80;99.90;;;;;;6112510;23;20435;-82
2023/04/28 09:14:05;;;;;;;4.60;4.20;;;15.70;99.90;;;;;;6136096;23;20744;-81
2023/04/28 09:16:50;;;;;;;5.50;3.97;;;15.70;99.90;;;;;;6138422;23;20446;-81
2023/04/28 09:19:52;;;;;;;4.40;3.97;;;15.40;99.90;;;;;;6139580;23;20442;-81
2023/04/28 09:22:45;;;;;;;4.90;4.47;;;15.60;99.90;;;;;;6137026;23;20454;-82
2023/04/28 09:25:39;;;;;;;5.30;4.80;;;15.70;99.90;;;;;;6133228;23;20402;-82
2023/04/28 09:28:28;;;;;;;5.20;4.70;;;15.50;99.90;;;;;;6157175;23;20956;-83
2023/04/28 09:31:13;;;;;;;5.60;4.43;;;15.40;99.90;;;;;;6134884;23;20498;-82
2023/04/28 09:33:59;;;;;;;4.80;4.30;;;15.40;99.90;;;;;;6135844;23;20425;-81
2023/04/28 09:37:01;;;;;;;5.43;4.07;;;15.30;99.90;;;;;;6138811;23;20401;-82
2023/04/28 09:39:31;;;;;;;6.47;5.97;;;15.20;99.90;;;;;;6157172;23;20503;-82
2023/04/28 09:42:31;;;;;;;6.70;4.80;;;15.20;99.90;;;;;;6158367;23;20450;-82
2023/04/28 09:45:19;;;;;;;4.40;4.00;;;14.90;99.90;;;;;;6145710;23;20876;-83
2023/04/28 09:48:18;;;;;;;6.03;5.40;;;15.00;99.90;;;;;;6138415;23;20438;-82
2023/04/28 09:51:05;;;;;;;4.50;4.10;;;15.30;99.90;;;;;;6134007;23;20915;-83
2023/04/28 09:53:47;;;;;;;7.33;4.37;;;15.30;99.90;;;;;;6159930;23;20395;-82
2023/04/28 09:56:20;;;;;;;4.30;3.90;;;15.30;99.90;;;;;;6161047;23;20457;-81
2023/04/28 09:59:04;;;;;;;5.77;5.00;;;15.40;99.90;;;;;;6134460;23;20830;-81
2023/04/28 10:01:42;;;;;;;6.03;4.47;;;15.40;99.90;;;;;;6134427;23;20438;-82
2023/04/28 10:04:16;;;;;;;4.33;3.93;;;15.40;99.90;;;;;;6135440;23;20415;-82
2023/04/28 10:06:48;;;;;;;6.33;4.53;;;15.50;99.90;;;;;;6159178;23;20421;-80
2023/04/28 10:09:49;;;;;;;5.30;4.17;;;15.50;99.90;;;;;;6161244;23;20430;-82
2023/04/28 10:12:26;;;;;;;5.50;5.00;;;15.50;99.90;;;;;;6160220;23;20419;-82
2023/04/28 10:14:59;;;;;;;6.13;5.00;;;15.40;99.90;;;;;;6161350;23;20422;-83
2023/04/28 10:18:02;;;;;;;4.90;4.50;;;15.30;99.90;;;;;;6167169;23;20405;-82
2023/04/28 10:20:41;;;;;;;5.43;5.00;;;15.50;99.90;;;;;;6177458;23;20450;-82
2023/04/28 10:23:45;;;;;;;5.00;4.50;;;15.70;99.90;;;;;;6181891;23;20429;-81
2023/04/28 10:26:43;;;;;;;5.00;4.40;;;15.70;99.90;;;;;;6203963;23;20434;-81
2023/04/28 10:29:16;;;;;;;4.60;4.10;;;15.70;99.90;;;;;;6179305;23;20478;-82
2023/04/28 10:32:27;;;;;;;5.70;5.20;;;15.60;99.90;;;;;;6179060;23;20446;-81
2023/04/28 10:35:23;;;;;;;6.13;4.50;;;15.70;99.90;;;;;;6157856;23;20457;-82
2023/04/28 10:38:16;;;;;;;5.33;4.80;;;15.80;99.90;;;;;;6176965;23;20410;-82
2023/04/28 10:41:02;;;;;;;5.37;4.93;;;15.90;99.90;;;;;;6156624;23;20411;-83
2023/04/28 10:43:41;;;;;;;5.90;5.30;;;16.00;99.90;;;;;;6156270;23;20466;-82
2023/04/28 10:46:27;;;;;;;5.57;5.00;;;16.10;99.90;;;;;;6156405;23;20418;-81
2023/04/28 10:49:11;;;;;;;6.17;4.40;;;16.20;99.90;;;;;;6156865;23;20462;-82
2023/04/28 10:51:54;;;;;;;6.63;4.50;;;16.20;99.90;;;;;;6181601;23;20407;-82
2023/04/28 10:54:41;;;;;;;7.20;5.77;;;16.10;99.90;;;;;;6159423;23;20415;-83
2023/04/28 10:57:40;;;;;;;5.83;5.23;;;16.20;99.90;;;;;;6157277;23;20414;-80
2023/04/28 11:00:40;;;;;;;5.00;4.50;;;16.20;99.90;;;;;;6156382;23;20494;-81
2023/04/28 11:04:06;;;;;;;6.30;5.70;;;16.30;99.90;;;;;;6158153;23;20453;-81
2023/04/28 11:06:52;;;;;;;5.97;5.47;;;16.20;99.90;;;;;;6179322;23;20417;-82
2023/04/28 11:09:23;;;;;;;5.40;4.90;;;16.30;99.90;;;;;;6159485;23;21050;-82
2023/04/28 11:12:21;;;;;;;6.67;5.33;;;16.40;99.90;;;;;;6162602;23;20422;-83
2023/04/28 11:15:21;;;;;;;6.80;5.90;;;16.60;99.90;;;;;;6134704;23;20959;-83
2023/04/28 11:18:19;;;;;;;5.40;4.80;;;16.60;99.90;;;;;;6137826;23;20414;-81
2023/04/28 11:21:03;;;;;;;6.43;5.73;;;16.70;99.90;;;;;;6118870;23;20475;-82
2023/04/28 11:23:58;;;;;;;5.93;4.60;;;16.60;99.90;;;;;;6135611;23;20469;-82
2023/04/28 11:29:40;;;;;;;5.33;4.83;;;17.20;99.90;;;;;;6159184;23;20463;-82
2023/04/28 11:32:35;;;;;;;5.83;5.33;;;17.60;99.90;;;;;;6135344;23;20430;-82
2023/04/28 11:35:19;;;;;;;5.73;4.93;;;18.10;99.90;;;;;;6136002;23;20426;-82
2023/04/28 11:38:17;;;;;;;5.43;4.93;;;18.30;99.90;;;;;;6139103;23;20434;-81
2023/04/28 11:41:33;;;;;;;5.13;4.63;;;18.60;99.90;;;;;;6114151;23;20395;-81
2023/04/28 11:44:33;;;;;;;5.43;4.57;;;18.60;99.90;;;;;;6133795;23;20498;-81
2023/04/28 11:47:11;;;;;;;6.53;5.80;;;18.60;99.90;;;;;;6133741;23;20434;-82
2023/04/28 11:49:57;;;;;;;5.80;5.30;;;18.50;99.90;;;;;;6130255;23;20419;-81
2023/04/28 11:53:03;;;;;;;5.53;5.03;;;18.40;99.90;;;;;;6168966;23;20433;-82
2023/04/28 11:55:39;;;;;;;5.80;5.30;;;18.20;99.90;;;;;;6144274;23;20943;-82
2023/04/28 11:58:40;;;;;;;5.33;4.83;;;18.00;99.90;;;;;;6144689;23;20441;-81
2023/04/28 12:01:36;;;;;;;6.03;5.53;;;17.90;99.90;;;;;;6131832;23;20411;-81
2023/04/28 12:04:18;;;;;;;6.00;5.50;;;18.00;99.90;;;;;;6145295;23;20442;-82
2023/04/28 12:07:15;;;;;;;6.13;5.53;;;18.10;99.90;;;;;;6138344;23;20418;-84
2023/04/28 12:10:13;;;;;;;6.27;5.67;;;18.00;99.90;;;;;;6141714;23;20465;-81
2023/04/28 12:13:30;;;;;;;5.80;5.30;;;18.70;99.90;;;;;;6103013;23;20422;-83
2023/04/28 12:16:08;;;;;;;5.17;4.63;;;19.60;99.90;;;;;;6170693;23;20417;-79
2023/04/28 12:19:24;;;;;;;4.90;4.43;;;20.00;99.90;;;;;;6146669;23;20430;-84
2023/04/28 12:22:28;;;;;;;5.10;4.60;;;20.10;99.90;;;;;;6159470;23;20442;-83
2023/04/28 12:25:20;;;;;;;5.50;5.00;;;20.10;99.90;;;;;;6154622;23;20501;-82
2023/04/28 12:28:42;;;;;;;5.47;4.97;;;20.20;99.90;;;;;;6140505;23;20451;-82
2023/04/28 12:31:58;;;;;;;5.27;4.87;;;19.90;99.90;;;;;;6142493;23;20419;-81
2023/04/28 12:34:57;;;;;;;4.70;4.30;;;19.60;99.90;;;;;;6137961;23;21234;-81
2023/04/28 12:38:20;;;;;;;;;;;;;;;;;;;;;
2023/04/28 12:41:10;;;;;;;4.50;4.10;;;19.90;99.90;;;;;;6160855;23;20450;-83
2023/04/28 12:44:09;;;;;;;3.87;3.60;;;19.90;99.90;;;;;;6168026;23;20795;-83
2023/04/28 12:46:55;;;;;;;4.37;4.00;;;19.60;99.90;;;;;;6143566;23;20401;-81
2023/04/28 12:49:37;;;;;;;4.53;4.10;;;19.80;99.90;;;;;;6142410;23;20660;-81
2023/04/28 12:52:34;;;;;;;4.40;4.00;;;20.10;99.70;;;;;;6140232;23;20402;-83
2023/04/28 12:55:21;;;;;;;3.80;3.50;;;19.90;99.90;;;;;;6137127;23;20410;-83
2023/04/28 12:58:12;;;;;;;3.87;3.57;;;19.60;99.90;;;;;;6138757;23;20435;-83
2023/04/28 13:04:14;;;;;;;4.47;4.07;;;20.10;99.90;;;;;;6151322;23;20442;-81
2023/04/28 13:07:09;;;;;;;4.63;4.10;;;20.10;99.40;;;;;;6159270;23;20407;-82
2023/04/28 13:09:57;;;;;;;4.57;4.17;;;20.00;99.90;;;;;;6142203;23;20445;-83
2023/04/28 13:12:51;;;;;;;4.40;3.93;;;20.60;99.60;;;;;;6193329;23;20414;-82
2023/04/28 13:15:34;;;;;;;4.73;4.33;;;20.80;98.50;;;;;;6189849;23;20408;-82
2023/04/28 13:18:26;;;;;;;;;;;;;;;;;;;;;
2023/04/28 13:21:16;;;;;;;3.70;3.40;;;21.00;97.60;;;;;;6191703;23;20504;-82
2023/04/28 13:24:08;;;;;;;4.73;4.33;;;21.00;97.50;;;;;;6154696;23;20460;-83
2023/04/28 13:27:01;;;;;;;5.00;4.53;;;20.80;97.50;;;;;;6182187;23;20969;-81
2023/04/28 13:29:47;;;;;;;4.10;3.67;;;21.10;97.30;;;;;;6191046;23;20458;-83
2023/04/28 13:32:59;;;;;;;3.67;3.33;;;20.70;97.40;;;;;;6147435;23;20448;-83
2023/04/28 13:35:37;;;;;;;3.77;3.47;;;20.20;98.40;;;;;;6162684;23;20608;-82
2023/04/28 13:38:26;;;;;;;;;;;;;;;;;;;;;
2023/04/28 13:41:37;;;;;;;4.10;3.70;;;20.20;99.90;;;;;;6190370;23;20813;-82
2023/04/28 13:44:56;;;;;;;4.90;3.53;;;21.30;98.80;;;;;;6159283;23;20525;-82
2023/04/28 13:47:31;;;;;;;4.03;3.73;;;21.70;97.60;;;;;;6190339;23;20409;-81
2023/04/28 13:50:27;;;;;;;3.80;3.50;;;22.50;95.80;;;;;;6166111;23;20437;-82
2023/04/28 13:53:21;;;;;;;5.80;4.47;;;22.30;94.80;;;;;;6166928;23;20497;-83
2023/04/28 13:56:10;;;;;;;4.80;4.50;;;22.20;96.10;;;;;;6166908;23;20424;-81
2023/04/28 13:59:15;;;;;;;4.20;3.90;;;22.20;95.90;;;;;;6167650;23;20429;-82
2023/04/28 14:02:10;;;;;;;4.47;4.17;;;22.40;95.50;;;;;;6150051;23;20398;-82
2023/04/28 14:08:10;;;;;;;4.67;4.27;;;22.50;95.10;;;;;;6192684;23;20406;-83
2023/04/28 14:11:11;;;;;;;4.53;4.13;;;22.40;94.70;;;;;;6144079;23;20418;-82
2023/04/28 14:17:20;;;;;;;4.33;4.03;;;22.10;94.60;;;;;;6204514;23;20426;-81
2023/04/28 14:20:00;;;;;;;4.33;3.93;;;21.50;95.80;;;;;;6184155;23;20521;-81
2023/04/28 14:25:54;;;;;;;2.97;2.73;;;21.60;95.50;;;;;;6208087;23;20409;-84
2023/04/28 14:28:33;;;;;;;3.20;2.90;;;21.40;95.80;;;;;;6183954;23;20429;-83
2023/04/28 14:31:09;;;;;;;1.80;1.70;;;21.20;95.30;;;;;;6182124;23;20764;-82
2023/04/28 14:33:50;;;;;;;2.60;1.60;;;21.00;95.30;;;;;;6184945;23;20370;-82
2023/04/28 14:37:00;;;;;;;1.37;1.23;;;21.00;94.70;;;;;;6184045;23;20408;-82
2023/04/28 14:39:32;;;;;;;1.67;1.03;;;21.30;94.60;;;;;;6206565;23;20438;-82
2023/04/28 14:42:26;;;;;;;1.17;1.07;;;21.40;93.30;;;;;;6176083;23;20394;-80
2023/04/28 14:45:07;;;;;;;0.80;0.80;;;21.60;92.10;;;;;;6176189;23;20438;-84
2023/04/28 14:48:14;;;;;;;1.20;1.10;;;21.60;91.50;;;;;;6175169;23;20426;-82
2023/04/28 14:50:50;;;;;;;0.70;0.70;;;21.70;91.50;;;;;;6202354;23;20810;-82
2023/04/28 14:53:52;;;;;;;0.97;0.80;;;21.50;91.30;;;;;;6189224;23;20413;-82
2023/04/28 14:56:39;;;;;;;1.00;1.00;;;21.30;92.10;;;;;;6136847;23;20441;-82
2023/04/28 14:59:28;;;;;;;1.40;1.30;;;21.30;93.60;;;;;;6168319;23;20442;-81
2023/04/28 15:02:20;;;;;;;1.37;1.27;;;21.30;94.10;;;;;;6189121;23;20402;-82
2023/04/28 15:05:03;;;;;;;1.10;1.00;;;21.40;93.60;;;;;;6185526;23;20434;-81
2023/04/28 15:07:39;;;;;;;1.17;1.07;;;21.50;93.10;;;;;;6186138;23;20398;-82
2023/04/28 15:10:47;;;;;;;1.00;1.00;;;21.40;92.30;;;;;;6183107;23;20441;-82
2023/04/28 15:13:32;;;;;;;1.10;1.00;;;21.30;92.40;;;;;;6190836;23;20421;-82
2023/04/28 15:16:13;;;;;;;1.33;1.23;;;21.20;92.40;;;;;;6164943;23;20418;-82
2023/04/28 15:18:55;;;;;;;1.20;1.10;;;21.30;92.70;;;;;;6166896;23;20414;-82
2023/04/28 15:21:45;;;;;;;0.93;0.90;;;21.40;92.00;;;;;;6167191;23;20489;-81
2023/04/28 15:24:54;;;;;;;1.10;1.00;;;21.20;92.00;;;;;;6188673;23;20448;-83
2023/04/28 15:30:45;;;;;;;1.30;1.20;;;20.90;92.30;;;;;;6172939;23;20413;-82
2023/04/28 15:33:23;;;;;;;1.40;1.30;;;20.90;92.70;;;;;;6188750;23;20399;-82
2023/04/28 15:36:07;;;;;;;1.70;1.60;;;20.90;92.90;;;;;;6142995;23;20437;-82
2023/04/28 15:39:01;;;;;;;1.50;1.40;;;21.00;92.90;;;;;;6165385;23;20481;-83
2023/04/28 15:41:59;;;;;;;1.10;1.00;;;21.00;92.80;;;;;;6162496;23;20406;-82
2023/04/28 15:44:54;;;;;;;1.27;1.17;;;20.90;93.00;;;;;;6202054;23;20441;-82
2023/04/28 15:47:41;;;;;;;2.03;1.40;;;20.80;92.70;;;;;;6186259;23;20413;-82
2023/04/28 15:50:38;;;;;;;1.40;1.30;;;20.70;93.10;;;;;;6166727;23;20548;-83
2023/04/28 15:53:24;;;;;;;2.77;1.70;;;20.70;93.10;;;;;;6163844;23;20417;-83
2023/04/28 15:59:13;;;;;;;1.90;1.60;;;20.50;93.70;;;;;;6177352;23;20435;-82
2023/04/28 16:02:08;;;;;;;1.73;1.50;;;20.50;93.90;;;;;;6171451;23;20426;-82
2023/04/28 16:10:17;;;;;;;2.67;1.90;;;20.30;93.70;;;;;;6161891;23;20449;-81
2023/04/28 16:13:11;;;;;;;1.20;1.20;;;20.30;93.70;;;;;;6161128;23;20410;-83
2023/04/28 16:16:06;;;;;;;3.03;2.20;;;20.20;93.50;;;;;;6145101;23;20956;-82
2023/04/28 16:19:41;;;;;;;5.40;2.10;;;20.10;93.60;;;;;;6073589;23;21459;-82